createdAt,value
2023-01-22T00:00:00.840Z,995.0747
2023-01-22T00:01:00.993Z,995.0604
2023-01-22T00:02:01.137Z,994.9695
2023-01-22T00:03:00.336Z,995.1096
2023-01-22T00:04:00.495Z,995.4109
2023-01-22T00:05:00.581Z,995.0467
2023-01-22T00:06:00.721Z,995.0255
2023-01-22T00:07:00.861Z,995.1027
2023-01-22T00:08:01.024Z,995.1725
2023-01-22T00:09:01.194Z,995.2497
2023-01-22T00:10:00.444Z,995.0747
2023-01-22T00:11:00.470Z,995.2775
2023-01-22T00:12:00.608Z,995.3335
2023-01-22T00:13:00.749Z,995.1445
2023-01-22T00:14:00.983Z,995.0604
2023-01-22T00:15:01.051Z,995.1725
2023-01-22T00:16:01.339Z,995.0467
2023-01-22T00:17:00.374Z,994.9906
2023-01-22T00:18:00.502Z,994.9906
2023-01-22T00:19:00.649Z,995.1307
2023-01-22T00:20:00.795Z,995.1096
2023-01-22T00:21:00.951Z,995.1307
2023-01-22T00:22:01.114Z,995.2497
2023-01-22T00:23:01.245Z,995.1588
2023-01-22T00:24:00.398Z,995.1376
2023-01-22T00:25:00.541Z,995.1027
2023-01-22T00:26:00.696Z,994.9066
2023-01-22T00:27:00.866Z,995.0187
2023-01-22T00:28:00.979Z,994.9346
2023-01-22T00:29:01.122Z,995.1725
2023-01-22T00:30:00.271Z,995.1165
2023-01-22T00:31:00.557Z,995.0324
2023-01-22T00:32:00.718Z,995.2566
2023-01-22T00:33:00.715Z,995.1165
2023-01-22T00:34:00.864Z,995.2148
2023-01-22T00:35:01.001Z,995.0467
2023-01-22T00:36:01.149Z,995.4807
2023-01-22T00:37:00.312Z,995.1096
2023-01-22T00:38:00.523Z,995.1934
2023-01-22T00:39:00.601Z,995.0463
2023-01-22T00:40:00.746Z,995.1654
2023-01-22T00:41:00.898Z,994.9346
2023-01-22T00:42:01.052Z,995.0816
2023-01-22T00:43:01.209Z,994.9906
2023-01-22T00:44:00.346Z,994.9626
2023-01-22T00:45:00.488Z,995.1376
2023-01-22T00:46:00.648Z,995.0467
2023-01-22T00:47:00.773Z,995.3055
2023-01-22T00:48:00.950Z,995.1027
2023-01-22T00:49:01.088Z,995.0747
2023-01-22T00:50:01.241Z,995.0604
2023-01-22T00:51:00.418Z,995.2566
2023-01-22T00:52:00.529Z,995.2985
2023-01-22T00:53:00.681Z,995.1656
2023-01-22T00:54:00.847Z,995.0467
2023-01-22T00:55:01.010Z,995.1868
2023-01-22T00:56:01.106Z,995.2566
2023-01-22T00:57:01.259Z,995.4807
2023-01-22T00:58:00.439Z,995.4458
2023-01-22T00:59:00.571Z,995.4458
2023-01-22T01:00:00.708Z,995.1588
2023-01-22T01:01:00.902Z,995.4109
2023-01-22T01:02:01.045Z,995.4109
2023-01-22T01:03:01.135Z,995.4109
2023-01-22T01:04:00.310Z,995.2148
2023-01-22T01:05:00.430Z,995.4458
2023-01-22T01:06:00.608Z,995.2148
2023-01-22T01:07:00.731Z,995.4109
2023-01-22T01:08:00.869Z,995.4109
2023-01-22T01:09:01.044Z,995.4109
2023-01-22T01:10:01.184Z,995.4109
2023-01-22T01:11:00.317Z,995.4109
2023-01-22T01:12:00.482Z,995.1588
2023-01-22T01:13:00.611Z,995.2217
2023-01-22T01:14:00.755Z,995.2148
2023-01-22T01:15:00.918Z,995.1868
2023-01-22T01:16:01.089Z,995.4458
2023-01-22T01:17:01.211Z,995.4109
2023-01-22T01:18:00.339Z,995.4109
2023-01-22T01:19:00.512Z,995.2148
2023-01-22T01:20:00.658Z,995.1868
2023-01-22T01:21:00.810Z,995.4458
2023-01-22T01:22:00.934Z,995.1868
2023-01-22T01:23:01.079Z,995.1588
2023-01-22T01:24:01.236Z,995.1868
2023-01-22T01:25:00.385Z,995.4109
2023-01-22T01:26:00.540Z,995.1868
2023-01-22T01:27:00.651Z,995.4109
2023-01-22T01:28:00.809Z,995.1868
2023-01-22T01:29:00.952Z,995.2148
2023-01-22T01:30:01.096Z,995.4458
2023-01-22T01:31:01.383Z,995.4109
2023-01-22T01:32:00.505Z,995.4109
2023-01-22T01:33:00.546Z,995.2148
2023-01-22T01:34:00.711Z,995.4109
2023-01-22T01:35:00.852Z,995.4109
2023-01-22T01:36:01.020Z,995.2777
2023-01-22T01:37:01.169Z,995.2005
2023-01-22T01:38:00.292Z,995.4109
2023-01-22T01:39:00.445Z,995.2428
2023-01-22T01:40:00.611Z,995.2148
2023-01-22T01:41:00.763Z,995.1588
2023-01-22T01:42:00.894Z,995.2148
2023-01-22T01:43:01.054Z,995.1868
2023-01-22T01:44:01.186Z,995.2148
2023-01-22T01:45:00.336Z,995.4109
2023-01-22T01:46:00.500Z,995.4739
2023-01-22T01:47:00.627Z,995.4109
2023-01-22T01:48:00.771Z,995.2497
2023-01-22T01:49:00.929Z,995.4109
2023-01-22T01:50:01.088Z,995.523
2023-01-22T01:51:01.311Z,995.4109
2023-01-22T01:52:00.377Z,995.4109
2023-01-22T01:53:00.517Z,995.4109
2023-01-22T01:54:00.660Z,995.4109
2023-01-22T01:55:00.815Z,995.4109
2023-01-22T01:56:00.966Z,995.467
2023-01-22T01:57:01.119Z,995.4109
2023-01-22T01:58:01.254Z,995.467
2023-01-22T01:59:00.424Z,995.4109
2023-01-22T02:00:00.565Z,995.4109
2023-01-22T02:01:00.766Z,995.523
2023-01-22T02:02:00.902Z,995.495
2023-01-22T02:03:01.010Z,995.5791
2023-01-22T02:04:01.192Z,995.467
2023-01-22T02:05:00.304Z,995.467
2023-01-22T02:06:00.458Z,995.523
2023-01-22T02:07:00.620Z,995.6551
2023-01-22T02:08:00.751Z,995.523
2023-01-22T02:09:00.896Z,995.439
2023-01-22T02:10:01.085Z,995.551
2023-01-22T02:11:01.196Z,995.6551
2023-01-22T02:12:00.348Z,995.495
2023-01-22T02:13:00.489Z,995.439
2023-01-22T02:14:00.625Z,995.6551
2023-01-22T02:15:00.800Z,995.6128
2023-01-22T02:16:00.958Z,995.6059
2023-01-22T02:17:01.060Z,995.6831
2023-01-22T02:18:01.200Z,995.5791
2023-01-22T02:19:00.350Z,995.523
2023-01-22T02:20:00.505Z,995.6831
2023-01-22T02:21:00.666Z,995.5791
2023-01-22T02:22:00.806Z,995.6831
2023-01-22T02:23:00.956Z,995.6551
2023-01-22T02:24:01.089Z,995.7111
2023-01-22T02:25:01.239Z,995.6551
2023-01-22T02:26:00.439Z,995.6831
2023-01-22T02:27:00.538Z,995.6551
2023-01-22T02:28:00.684Z,995.6551
2023-01-22T02:29:00.844Z,995.6831
2023-01-22T02:30:00.985Z,995.6551
2023-01-22T02:31:01.183Z,995.7392
2023-01-22T02:32:00.295Z,995.8793
2023-01-22T02:33:00.452Z,995.6831
2023-01-22T02:34:00.585Z,995.7111
2023-01-22T02:35:00.739Z,995.467
2023-01-22T02:36:00.887Z,995.551
2023-01-22T02:37:01.019Z,995.6551
2023-01-22T02:38:01.167Z,995.6551
2023-01-22T02:39:00.314Z,995.8793
2023-01-22T02:40:00.481Z,995.551
2023-01-22T02:41:00.603Z,995.7111
2023-01-22T02:42:00.790Z,995.6551
2023-01-22T02:43:00.912Z,995.523
2023-01-22T02:44:01.074Z,995.5791
2023-01-22T02:45:01.228Z,995.551
2023-01-22T02:46:00.411Z,995.7111
2023-01-22T02:47:00.512Z,995.523
2023-01-22T02:48:00.669Z,995.6551
2023-01-22T02:49:00.814Z,995.6551
2023-01-22T02:50:00.981Z,995.523
2023-01-22T02:51:01.151Z,995.5791
2023-01-22T02:52:01.273Z,995.551
2023-01-22T02:53:00.404Z,995.523
2023-01-22T02:54:00.593Z,995.6551
2023-01-22T02:55:00.692Z,995.551
2023-01-22T02:56:00.883Z,995.523
2023-01-22T02:57:00.988Z,995.8793
2023-01-22T02:58:01.132Z,995.7392
2023-01-22T02:59:00.288Z,995.6551
2023-01-22T03:00:00.435Z,995.4743
2023-01-22T03:01:00.614Z,995.7111
2023-01-22T03:02:00.820Z,995.6551
2023-01-22T03:03:00.881Z,995.6551
2023-01-22T03:04:01.024Z,995.6831
2023-01-22T03:05:01.185Z,995.6551
2023-01-22T03:06:00.324Z,995.467
2023-01-22T03:07:00.516Z,995.7111
2023-01-22T03:08:00.630Z,995.6551
2023-01-22T03:09:00.774Z,995.7672
2023-01-22T03:10:00.910Z,995.6551
2023-01-22T03:11:01.061Z,995.6551
2023-01-22T03:12:01.236Z,995.69
2023-01-22T03:13:00.358Z,995.495
2023-01-22T03:14:00.507Z,995.69
2023-01-22T03:15:00.667Z,995.634
2023-01-22T03:16:00.799Z,995.7529
2023-01-22T03:17:00.971Z,995.551
2023-01-22T03:18:01.089Z,995.69
2023-01-22T03:19:01.241Z,995.7111
2023-01-22T03:20:00.399Z,995.6551
2023-01-22T03:21:00.547Z,995.6551
2023-01-22T03:22:00.697Z,995.6551
2023-01-22T03:23:00.840Z,995.467
2023-01-22T03:24:00.984Z,995.7111
2023-01-22T03:25:01.174Z,995.6551
2023-01-22T03:26:00.293Z,995.6551
2023-01-22T03:27:00.475Z,995.4807
2023-01-22T03:28:00.603Z,995.718
2023-01-22T03:29:00.734Z,995.6551
2023-01-22T03:30:00.881Z,995.6551
2023-01-22T03:31:01.064Z,995.6551
2023-01-22T03:32:01.258Z,995.7672
2023-01-22T03:33:00.328Z,995.6831
2023-01-22T03:34:00.479Z,995.746
2023-01-22T03:35:00.633Z,995.6551
2023-01-22T03:36:00.781Z,995.6831
2023-01-22T03:37:00.933Z,995.6551
2023-01-22T03:38:01.124Z,995.7249
2023-01-22T03:39:01.217Z,995.6831
2023-01-22T03:40:00.365Z,995.7111
2023-01-22T03:41:00.528Z,995.6551
2023-01-22T03:42:00.667Z,995.69
2023-01-22T03:43:00.837Z,995.7672
2023-01-22T03:44:00.997Z,995.6831
2023-01-22T03:45:01.102Z,995.8793
2023-01-22T03:46:01.417Z,995.6831
2023-01-22T03:47:00.459Z,995.746
2023-01-22T03:48:00.558Z,995.8793
2023-01-22T03:49:00.745Z,995.8793
2023-01-22T03:50:00.853Z,995.8793
2023-01-22T03:51:01.045Z,995.7111
2023-01-22T03:52:01.136Z,995.8793
2023-01-22T03:53:00.290Z,995.8793
2023-01-22T03:54:00.471Z,995.8793
2023-01-22T03:55:00.627Z,995.8793
2023-01-22T03:56:00.762Z,995.8793
2023-01-22T03:57:00.923Z,995.8793
2023-01-22T03:58:01.042Z,995.9353
2023-01-22T03:59:01.191Z,995.8793
2023-01-22T04:00:00.334Z,995.9353
2023-01-22T04:01:00.491Z,995.8793
2023-01-22T04:02:00.714Z,996.1034
2023-01-22T04:03:00.784Z,995.9987
2023-01-22T04:04:00.953Z,996.0194
2023-01-22T04:05:01.095Z,995.8866
2023-01-22T04:06:01.249Z,995.9073
2023-01-22T04:07:00.425Z,996.0194
2023-01-22T04:08:00.526Z,995.9426
2023-01-22T04:09:00.680Z,995.9073
2023-01-22T04:10:00.836Z,995.9913
2023-01-22T04:11:01.021Z,996.1034
2023-01-22T04:12:01.148Z,995.9633
2023-01-22T04:13:01.260Z,996.0474
2023-01-22T04:14:00.416Z,996.0194
2023-01-22T04:15:00.582Z,996.1034
2023-01-22T04:16:00.688Z,995.9913
2023-01-22T04:17:00.859Z,996.1034
2023-01-22T04:18:00.995Z,996.1034
2023-01-22T04:19:01.136Z,995.9633
2023-01-22T04:20:00.320Z,995.9353
2023-01-22T04:21:00.463Z,996.1034
2023-01-22T04:22:00.620Z,996.1034
2023-01-22T04:23:00.740Z,996.1034
2023-01-22T04:24:00.891Z,995.9913
2023-01-22T04:25:01.027Z,996.0474
2023-01-22T04:26:01.187Z,995.9913
2023-01-22T04:27:00.350Z,996.1034
2023-01-22T04:28:00.470Z,996.1034
2023-01-22T04:29:00.615Z,996.1383
2023-01-22T04:30:00.772Z,996.1034
2023-01-22T04:31:01.001Z,995.9982
2023-01-22T04:32:01.083Z,995.9073
2023-01-22T04:33:01.215Z,995.9353
2023-01-22T04:34:00.361Z,996.0474
2023-01-22T04:35:00.511Z,995.9913
2023-01-22T04:36:00.657Z,995.9142
2023-01-22T04:37:00.838Z,995.9491
2023-01-22T04:38:00.954Z,995.8793
2023-01-22T04:39:01.091Z,995.9353
2023-01-22T04:40:01.244Z,995.8793
2023-01-22T04:41:00.400Z,995.9422
2023-01-22T04:42:00.578Z,995.8793
2023-01-22T04:43:00.680Z,996.0823
2023-01-22T04:44:00.842Z,995.9913
2023-01-22T04:45:00.978Z,996.0543
2023-01-22T04:46:01.170Z,996.0474
2023-01-22T04:47:00.310Z,995.9142
2023-01-22T04:48:00.425Z,995.9353
2023-01-22T04:49:00.583Z,995.9982
2023-01-22T04:50:00.721Z,995.9142
2023-01-22T04:51:00.940Z,995.9353
2023-01-22T04:52:01.026Z,995.9353
2023-01-22T04:53:01.176Z,996.1034
2023-01-22T04:54:00.340Z,996.1383
2023-01-22T04:55:00.485Z,996.1595
2023-01-22T04:56:00.625Z,995.9913
2023-01-22T04:57:00.783Z,995.9353
2023-01-22T04:58:00.925Z,996.0194
2023-01-22T04:59:01.070Z,995.9353
2023-01-22T05:00:01.220Z,996.0474
2023-01-22T05:01:00.434Z,996.1034
2023-01-22T05:02:00.537Z,996.2435
2023-01-22T05:03:00.653Z,996.1034
2023-01-22T05:04:00.801Z,996.2155
2023-01-22T05:05:00.950Z,995.9913
2023-01-22T05:06:01.096Z,996.2435
2023-01-22T05:07:01.263Z,996.1875
2023-01-22T05:08:00.386Z,996.2155
2023-01-22T05:09:00.538Z,996.1314
2023-01-22T05:10:00.687Z,996.2435
2023-01-22T05:11:00.849Z,996.1595
2023-01-22T05:12:01.029Z,996.1314
2023-01-22T05:13:01.137Z,996.1034
2023-01-22T05:14:00.280Z,996.3556
2023-01-22T05:15:00.428Z,996.1595
2023-01-22T05:16:00.657Z,996.2155
2023-01-22T05:17:00.739Z,996.2155
2023-01-22T05:18:00.888Z,996.2996
2023-01-22T05:19:01.019Z,996.2996
2023-01-22T05:20:01.192Z,996.2435
2023-01-22T05:21:00.368Z,996.3556
2023-01-22T05:22:00.504Z,996.2715
2023-01-22T05:23:00.631Z,996.2155
2023-01-22T05:24:00.770Z,996.2996
2023-01-22T05:25:00.925Z,996.2155
2023-01-22T05:26:01.053Z,996.2996
2023-01-22T05:27:01.240Z,996.2715
2023-01-22T05:28:00.346Z,996.2996
2023-01-22T05:29:00.513Z,996.3556
2023-01-22T05:30:00.639Z,996.4396
2023-01-22T05:31:00.891Z,996.4116
2023-01-22T05:32:00.954Z,996.3276
2023-01-22T05:33:01.089Z,996.3556
2023-01-22T05:34:01.232Z,996.2715
2023-01-22T05:35:00.374Z,996.3345
2023-01-22T05:36:00.519Z,996.3345
2023-01-22T05:37:00.703Z,996.3836
2023-01-22T05:38:00.835Z,996.4715
2023-01-22T05:39:00.979Z,996.4116
2023-01-22T05:40:01.128Z,996.4116
2023-01-22T05:41:00.273Z,996.4857
2023-01-22T05:42:00.451Z,996.4116
2023-01-22T05:43:00.615Z,996.2996
2023-01-22T05:44:00.729Z,996.3836
2023-01-22T05:45:00.882Z,996.4677
2023-01-22T05:46:01.077Z,996.3556
2023-01-22T05:47:01.155Z,996.3556
2023-01-22T05:48:00.307Z,996.3276
2023-01-22T05:49:00.443Z,996.3556
2023-01-22T05:50:00.600Z,996.5137
2023-01-22T05:51:00.799Z,996.4677
2023-01-22T05:52:00.899Z,996.4396
2023-01-22T05:53:01.065Z,996.4116
2023-01-22T05:54:01.185Z,996.3836
2023-01-22T05:55:00.325Z,996.4677
2023-01-22T05:56:00.498Z,996.3556
2023-01-22T05:57:00.643Z,996.3276
2023-01-22T05:58:00.793Z,996.2996
2023-01-22T05:59:00.930Z,996.4677
2023-01-22T06:00:01.086Z,996.3556
2023-01-22T06:01:01.225Z,996.4185
2023-01-22T06:02:00.398Z,996.5137
2023-01-22T06:03:00.530Z,996.4116
2023-01-22T06:04:00.664Z,996.3556
2023-01-22T06:05:00.867Z,996.4116
2023-01-22T06:06:00.969Z,996.3905
2023-01-22T06:07:01.151Z,996.3556
2023-01-22T06:08:01.266Z,996.5137
2023-01-22T06:09:00.411Z,996.5137
2023-01-22T06:10:00.537Z,996.5137
2023-01-22T06:11:00.689Z,996.4466
2023-01-22T06:12:00.851Z,996.4677
2023-01-22T06:13:00.991Z,996.4466
2023-01-22T06:14:01.142Z,996.5137
2023-01-22T06:15:00.291Z,996.5137
2023-01-22T06:16:00.469Z,996.5697
2023-01-22T06:17:00.605Z,996.5697
2023-01-22T06:18:00.729Z,996.4677
2023-01-22T06:19:00.901Z,996.5417
2023-01-22T06:20:01.034Z,996.7168
2023-01-22T06:21:01.176Z,996.5137
2023-01-22T06:22:00.346Z,996.5486
2023-01-22T06:23:00.510Z,996.6258
2023-01-22T06:24:00.628Z,996.5134
2023-01-22T06:25:00.772Z,996.6047
2023-01-22T06:26:00.925Z,996.5137
2023-01-22T06:27:01.071Z,996.5137
2023-01-22T06:28:01.239Z,996.4396
2023-01-22T06:29:00.368Z,996.7376
2023-01-22T06:30:00.513Z,996.5486
2023-01-22T06:31:00.796Z,996.4857
2023-01-22T06:32:00.823Z,996.4857
2023-01-22T06:33:00.980Z,996.6607
2023-01-22T06:34:01.117Z,996.8567
2023-01-22T06:35:01.254Z,996.5836
2023-01-22T06:36:00.396Z,996.6047
2023-01-22T06:37:00.551Z,996.7726
2023-01-22T06:38:00.729Z,996.7517
2023-01-22T06:39:00.839Z,996.7376
2023-01-22T06:40:01.005Z,996.6957
2023-01-22T06:41:01.144Z,996.8078
2023-01-22T06:42:00.293Z,996.7517
2023-01-22T06:43:00.455Z,996.6538
2023-01-22T06:44:00.612Z,996.7659
2023-01-22T06:45:00.751Z,996.7379
2023-01-22T06:46:00.892Z,996.7379
2023-01-22T06:47:01.029Z,996.7939
2023-01-22T06:48:01.199Z,996.7098
2023-01-22T06:49:00.367Z,996.9129
2023-01-22T06:50:00.488Z,996.7939
2023-01-22T06:51:00.679Z,996.7379
2023-01-22T06:52:00.771Z,996.8638
2023-01-22T06:53:00.929Z,996.8499
2023-01-22T06:54:01.110Z,996.9688
2023-01-22T06:55:01.262Z,996.9688
2023-01-22T06:56:00.382Z,996.8638
2023-01-22T06:57:00.512Z,996.9128
2023-01-22T06:58:00.670Z,996.8289
2023-01-22T06:59:00.813Z,996.7098
2023-01-22T07:00:00.978Z,997.081
2023-01-22T07:01:01.116Z,996.8849
2023-01-22T07:02:01.308Z,996.99
2023-01-22T07:03:00.410Z,997.2492
2023-01-22T07:04:00.667Z,997.0319
2023-01-22T07:05:00.716Z,997.2142
2023-01-22T07:06:00.856Z,997.3331
2023-01-22T07:07:00.993Z,997.3331
2023-01-22T07:08:01.149Z,997.2492
2023-01-22T07:09:00.292Z,997.2841
2023-01-22T07:10:00.465Z,997.2841
2023-01-22T07:11:00.598Z,997.4101
2023-01-22T07:12:00.730Z,997.3331
2023-01-22T07:13:00.874Z,997.4382
2023-01-22T07:14:01.026Z,997.2772
2023-01-22T07:15:01.180Z,997.3331
2023-01-22T07:16:00.352Z,997.3611
2023-01-22T07:17:00.483Z,997.361
2023-01-22T07:18:00.612Z,997.361
2023-01-22T07:19:00.757Z,997.3331
2023-01-22T07:20:00.912Z,997.4172
2023-01-22T07:21:01.110Z,997.4522
2023-01-22T07:22:01.243Z,997.3261
2023-01-22T07:23:00.446Z,997.3331
2023-01-22T07:24:00.518Z,997.3331
2023-01-22T07:25:00.662Z,997.4731
2023-01-22T07:26:00.815Z,997.5573
2023-01-22T07:27:00.971Z,997.4942
2023-01-22T07:28:01.130Z,997.4382
2023-01-22T07:29:01.255Z,997.4242
2023-01-22T07:30:00.429Z,997.3121
2023-01-22T07:31:00.680Z,997.4522
2023-01-22T07:32:00.706Z,997.5363
2023-01-22T07:33:00.854Z,997.3331
2023-01-22T07:34:01.008Z,997.4382
2023-01-22T07:35:01.176Z,997.4172
2023-01-22T07:36:00.313Z,997.4172
2023-01-22T07:37:00.443Z,997.515
2023-01-22T07:38:00.622Z,997.606
2023-01-22T07:39:00.767Z,997.641
2023-01-22T07:40:00.930Z,997.606
2023-01-22T07:41:01.065Z,997.5289
2023-01-22T07:42:01.435Z,997.5849
2023-01-22T07:43:00.359Z,997.6058
2023-01-22T07:44:00.516Z,997.6058
2023-01-22T07:45:00.667Z,997.641
2023-01-22T07:46:00.811Z,997.6129
2023-01-22T07:47:00.951Z,997.515
2023-01-22T07:48:01.117Z,997.641
2023-01-22T07:49:01.251Z,997.5289
2023-01-22T07:50:00.414Z,997.774
2023-01-22T07:51:00.679Z,997.5849
2023-01-22T07:52:00.710Z,997.6899
2023-01-22T07:53:00.915Z,997.5849
2023-01-22T07:54:00.990Z,997.7179
2023-01-22T07:55:01.127Z,997.6058
2023-01-22T07:56:00.279Z,997.7179
2023-01-22T07:57:00.439Z,997.6058
2023-01-22T07:58:00.582Z,997.6758
2023-01-22T07:59:00.739Z,997.6058
2023-01-22T08:00:00.876Z,997.6338
2023-01-22T08:01:01.046Z,997.6408
2023-01-22T08:02:03.508Z,997.6408
2023-01-22T08:03:00.309Z,997.7318
2023-01-22T08:04:00.461Z,997.6758
2023-01-22T08:05:00.619Z,997.5565
2023-01-22T08:06:00.758Z,997.5284
2023-01-22T08:07:00.932Z,997.5985
2023-01-22T08:08:01.043Z,997.8227
2023-01-22T08:09:01.196Z,997.7807
2023-01-22T08:10:00.337Z,997.7037
2023-01-22T08:11:00.494Z,997.7108
2023-01-22T08:12:00.677Z,997.8159
2023-01-22T08:13:00.794Z,997.7807
2023-01-22T08:14:00.980Z,997.8227
2023-01-22T08:15:01.107Z,997.8577
2023-01-22T08:16:01.320Z,997.8577
2023-01-22T08:17:00.404Z,997.6965
2023-01-22T08:18:00.543Z,997.6123
2023-01-22T08:19:00.693Z,997.8827
2023-01-22T08:20:00.866Z,997.9177
2023-01-22T08:21:01.071Z,997.8827
2023-01-22T08:22:01.132Z,997.6754
2023-01-22T08:23:00.271Z,997.7664
2023-01-22T08:24:00.429Z,997.9947
2023-01-22T08:25:00.558Z,997.7803
2023-01-22T08:26:00.696Z,997.6261
2023-01-22T08:27:00.859Z,997.7591
2023-01-22T08:28:00.990Z,997.7591
2023-01-22T08:29:04.825Z,997.7871
2023-01-22T08:30:00.298Z,997.8502
2023-01-22T08:31:00.518Z,997.7871
2023-01-22T08:32:00.759Z,997.738
2023-01-22T08:33:00.755Z,997.64
2023-01-22T08:34:00.902Z,997.8892
2023-01-22T08:35:01.035Z,997.7732
2023-01-22T08:36:01.189Z,998.0997
2023-01-22T08:37:00.334Z,997.8965
2023-01-22T08:38:00.503Z,997.8013
2023-01-22T08:39:00.632Z,997.8432
2023-01-22T08:40:00.812Z,998.2597
2023-01-22T08:41:00.957Z,997.8852
2023-01-22T08:42:01.105Z,997.9102
2023-01-22T08:43:01.240Z,997.8291
2023-01-22T08:44:00.376Z,997.8291
2023-01-22T08:45:00.532Z,997.8712
2023-01-22T08:46:00.714Z,998.2597
2023-01-22T08:47:00.842Z,997.8712
2023-01-22T08:48:00.962Z,998.2347
2023-01-22T08:49:01.105Z,998.1997
2023-01-22T08:50:01.272Z,998.2597
2023-01-22T08:51:00.408Z,998.2597
2023-01-22T08:52:00.543Z,998.2628
2023-01-22T08:53:00.699Z,998.0994
2023-01-22T08:54:00.858Z,998.3368
2023-01-22T08:55:01.041Z,998.3508
2023-01-22T08:56:01.165Z,998.2947
2023-01-22T08:57:00.301Z,998.0152
2023-01-22T08:58:00.447Z,998.4068
2023-01-22T08:59:00.597Z,998.015
2023-01-22T09:00:01.690Z,998.2201
2023-01-22T09:01:00.980Z,998.1921
2023-01-22T09:02:01.126Z,998.1921
2023-01-22T09:03:01.189Z,998.2551
2023-01-22T09:04:00.342Z,998.2201
2023-01-22T09:05:00.510Z,998.2591
2023-01-22T09:06:00.636Z,998.134
2023-01-22T09:07:00.785Z,998.3082
2023-01-22T09:08:00.927Z,998.2201
2023-01-22T09:09:01.101Z,998.2201
2023-01-22T09:10:01.239Z,998.2662
2023-01-22T09:11:00.385Z,998.178
2023-01-22T09:12:00.524Z,998.3081
2023-01-22T09:13:00.679Z,998.199
2023-01-22T09:14:00.835Z,998.3223
2023-01-22T09:15:00.984Z,998.2802
2023-01-22T09:16:01.127Z,998.3223
2023-01-22T09:17:01.265Z,998.4345
2023-01-22T09:18:00.409Z,998.2662
2023-01-22T09:19:00.542Z,998.2662
2023-01-22T09:20:00.691Z,998.4065
2023-01-22T09:21:00.837Z,998.3924
2023-01-22T09:22:00.984Z,998.322
2023-01-22T09:23:01.145Z,998.3923
2023-01-22T09:24:00.277Z,998.3362
2023-01-22T09:25:00.436Z,998.4272
2023-01-22T09:26:00.568Z,998.3992
2023-01-22T09:27:00.723Z,998.3643
2023-01-22T09:28:00.894Z,998.3362
2023-01-22T09:29:01.057Z,998.6168
2023-01-22T09:30:01.169Z,998.5185
2023-01-22T09:31:00.348Z,998.315
2023-01-22T09:32:00.534Z,998.371
2023-01-22T09:33:00.617Z,998.4833
2023-01-22T09:34:00.768Z,998.5394
2023-01-22T09:35:00.908Z,998.4201
2023-01-22T09:36:01.047Z,998.6024
2023-01-22T09:37:01.194Z,998.4411
2023-01-22T09:38:00.347Z,998.4551
2023-01-22T09:39:00.510Z,998.5182
2023-01-22T09:40:00.639Z,998.5041
2023-01-22T09:41:00.779Z,998.7216
2023-01-22T09:42:00.940Z,998.6374
2023-01-22T09:43:01.074Z,998.6865
2023-01-22T09:44:01.233Z,998.4339
2023-01-22T09:45:00.358Z,998.6513
2023-01-22T09:46:00.689Z,998.6723
2023-01-22T09:47:00.682Z,998.5881
2023-01-22T09:48:00.809Z,998.616
2023-01-22T09:49:00.964Z,998.567
2023-01-22T09:50:01.111Z,998.7004
2023-01-22T09:51:01.270Z,998.518
2023-01-22T09:52:00.409Z,998.616
2023-01-22T09:53:00.576Z,998.6862
2023-01-22T09:54:00.711Z,998.5179
2023-01-22T09:55:00.872Z,998.4197
2023-01-22T09:56:01.043Z,998.56
2023-01-22T09:57:01.143Z,998.6021
2023-01-22T09:58:00.310Z,998.3986
2023-01-22T09:59:00.442Z,998.4547
2023-01-22T10:00:00.587Z,998.5039
2023-01-22T10:01:00.880Z,998.5109
2023-01-22T10:02:00.904Z,998.4265
2023-01-22T10:03:01.024Z,998.3354
2023-01-22T10:04:01.187Z,998.5038
2023-01-22T10:05:00.327Z,998.4195
2023-01-22T10:06:00.506Z,998.3915
2023-01-22T10:07:00.630Z,998.5038
2023-01-22T10:08:00.773Z,998.4968
2023-01-22T10:09:00.957Z,998.6091
2023-01-22T10:10:01.085Z,998.5598
2023-01-22T10:11:01.252Z,998.5667
2023-01-22T10:12:00.370Z,998.7069
2023-01-22T10:13:00.520Z,998.6227
2023-01-22T10:14:00.790Z,998.4544
2023-01-22T10:15:00.819Z,998.4194
2023-01-22T10:16:00.987Z,998.5666
2023-01-22T10:17:01.133Z,998.4823
2023-01-22T10:18:01.284Z,998.461
2023-01-22T10:19:00.403Z,998.5031
2023-01-22T10:20:00.566Z,998.5873
2023-01-22T10:21:00.727Z,998.3907
2023-01-22T10:22:00.891Z,998.5172
2023-01-22T10:23:01.026Z,998.5875
2023-01-22T10:24:01.168Z,998.5524
2023-01-22T10:25:00.344Z,998.6086
2023-01-22T10:26:00.477Z,998.4329
2023-01-22T10:27:00.615Z,998.5453
2023-01-22T10:28:00.791Z,998.468
2023-01-22T10:29:00.926Z,998.4401
2023-01-22T10:30:01.108Z,998.4331
2023-01-22T10:31:01.317Z,998.5173
2023-01-22T10:32:00.405Z,998.4682
2023-01-22T10:33:00.507Z,998.5524
2023-01-22T10:34:00.663Z,998.4962
2023-01-22T10:35:00.836Z,998.4682
2023-01-22T10:36:00.964Z,998.7138
2023-01-22T10:37:01.119Z,998.8052
2023-01-22T10:38:01.260Z,998.6297
2023-01-22T10:39:00.399Z,998.742
2023-01-22T10:40:00.568Z,998.5384
2023-01-22T10:41:00.703Z,998.7771
2023-01-22T10:42:00.846Z,998.6927
2023-01-22T10:43:01.029Z,998.5031
2023-01-22T10:44:01.159Z,998.5382
2023-01-22T10:45:00.298Z,998.6155
2023-01-22T10:46:00.518Z,998.5524
2023-01-22T10:47:00.585Z,998.5946
2023-01-22T10:48:00.762Z,998.7069
2023-01-22T10:49:00.919Z,998.5946
2023-01-22T10:50:03.363Z,998.3839
2023-01-22T10:51:01.303Z,998.5874
2023-01-22T10:52:00.360Z,998.5873
2023-01-22T10:53:00.509Z,998.412
2023-01-22T10:54:00.644Z,998.7069
2023-01-22T10:55:00.786Z,998.4261
2023-01-22T10:56:00.927Z,998.4261
2023-01-22T10:57:01.098Z,998.3631
2023-01-22T10:58:01.219Z,998.3912
2023-01-22T10:59:00.370Z,998.5384
2023-01-22T11:00:00.514Z,998.5384
2023-01-22T11:01:00.694Z,998.5665
2023-01-22T11:02:00.822Z,998.4612
2023-01-22T11:03:00.958Z,998.4823
2023-01-22T11:04:01.123Z,998.5665
2023-01-22T11:06:00.388Z,998.6998
2023-01-22T11:07:00.510Z,998.5946
2023-01-22T11:08:00.663Z,998.6297
2023-01-22T11:09:00.805Z,998.4823
2023-01-22T11:10:00.956Z,998.7069
2023-01-22T11:11:01.126Z,998.6719
2023-01-22T11:12:01.300Z,998.5667
2023-01-22T11:13:00.421Z,998.7913
2023-01-22T11:14:00.560Z,998.6647
2023-01-22T11:15:00.698Z,998.5453
2023-01-22T11:16:00.920Z,998.6224
2023-01-22T11:17:00.999Z,998.8049
2023-01-22T11:18:01.159Z,998.6855
2023-01-22T11:19:00.287Z,998.6574
2023-01-22T11:20:00.419Z,998.7276
2023-01-22T11:21:00.586Z,998.826
2023-01-22T11:22:00.691Z,998.84
2023-01-22T11:23:00.911Z,998.847
2023-01-22T11:24:00.912Z,998.6785
2023-01-22T11:26:00.662Z,998.9244
2023-01-22T11:27:00.714Z,998.9033
2023-01-22T11:28:00.853Z,998.6785
2023-01-22T11:30:00.734Z,998.7276
2023-01-22T11:31:00.910Z,998.812
2023-01-22T11:32:00.826Z,998.7771
2023-01-22T11:33:00.989Z,998.8052
2023-01-22T11:34:01.116Z,998.7771
2023-01-22T11:35:00.286Z,998.77
2023-01-22T11:36:00.429Z,998.6647
2023-01-22T11:37:00.572Z,998.7771
2023-01-22T11:38:00.731Z,998.6365
2023-01-22T11:39:00.892Z,998.77
2023-01-22T11:40:01.095Z,998.742
2023-01-22T11:41:01.202Z,998.8193
2023-01-22T11:42:00.326Z,998.7631
2023-01-22T11:43:00.470Z,998.6227
2023-01-22T11:44:00.631Z,998.7631
2023-01-22T11:45:00.742Z,998.7771
2023-01-22T11:46:00.961Z,998.735
2023-01-22T11:47:01.014Z,998.5946
2023-01-22T11:48:01.186Z,998.735
2023-01-22T11:49:00.327Z,998.7069